Time;durP1;ratioP1;P1;durP2;ratioP2;P2;SDS_P1;SDS_P2;PMS_P1;PMS_P2;Temp;Humidity;BMP_temperature;BMP_pressure;BME280_temperature;BME280_humidity;BME280_pressure;Samples;Min_cycle;Max_cycle;Signal;HPM_P1;HPM_P2
2022/06/09 00:02:20;;;;;;;2.83;1.13;;;20.10;65.80;;;;;;5074269;28;20404;-63
2022/06/09 00:04:46;;;;;;;2.17;0.95;;;20.20;65.90;;;;;;5073498;28;20123;-63
2022/06/09 00:07:15;;;;;;;3.83;1.13;;;20.10;65.80;;;;;;5074863;28;20045;-63
2022/06/09 00:09:51;;;;;;;3.65;1.30;;;20.10;65.80;;;;;;5073633;28;20041;-63
2022/06/09 00:12:16;;;;;;;2.30;1.20;;;20.10;65.80;;;;;;5074250;28;20045;-63
2022/06/09 00:14:42;;;;;;;2.88;1.13;;;20.10;65.80;;;;;;5069824;28;20090;-63
2022/06/09 00:17:07;;;;;;;2.38;1.13;;;20.10;65.80;;;;;;5052714;28;20079;-63
2022/06/09 00:19:33;;;;;;;3.65;1.05;;;20.10;65.80;;;;;;5054834;28;20083;-63
2022/06/09 00:21:58;;;;;;;4.75;1.65;;;20.10;65.80;;;;;;5054017;28;20845;-63
2022/06/09 00:24:24;;;;;;;2.72;1.10;;;20.10;65.80;;;;;;5053896;28;20045;-63
2022/06/09 00:26:50;;;;;;;3.70;1.23;;;20.10;65.80;;;;;;5054020;28;20045;-63
2022/06/09 00:29:15;;;;;;;3.47;1.10;;;20.10;65.80;;;;;;5054265;28;20341;-62
2022/06/09 00:31:41;;;;;;;2.90;1.13;;;20.10;65.90;;;;;;5053505;28;20036;-62
2022/06/09 00:34:06;;;;;;;2.72;1.13;;;20.10;65.90;;;;;;5054220;28;20072;-62
2022/06/09 00:36:32;;;;;;;2.80;1.30;;;20.10;65.90;;;;;;5053516;28;20047;-63
2022/06/09 00:38:58;;;;;;;3.30;1.33;;;20.10;65.90;;;;;;5053914;28;20037;-63
2022/06/09 00:41:26;;;;;;;2.45;1.55;;;20.10;65.80;;;;;;5054309;28;20385;-63
2022/06/09 00:43:51;;;;;;;2.65;1.20;;;20.10;65.80;;;;;;5059801;28;20045;-63
2022/06/09 00:46:24;;;;;;;3.05;1.40;;;20.10;65.80;;;;;;5074295;28;20053;-63
2022/06/09 00:48:59;;;;;;;2.97;1.40;;;20.10;65.80;;;;;;5072557;28;20036;-63
2022/06/09 00:51:38;;;;;;;4.32;1.30;;;20.10;65.80;;;;;;5072915;28;20131;-63
2022/06/09 00:54:11;;;;;;;1.90;1.10;;;20.10;65.80;;;;;;5071536;28;20044;-63
2022/06/09 00:56:45;;;;;;;2.97;1.10;;;20.10;65.90;;;;;;5073909;28;20044;-63
2022/06/09 00:59:12;;;;;;;2.30;1.30;;;20.10;66.00;;;;;;5071865;28;20040;-62
2022/06/09 01:01:39;;;;;;;3.55;1.50;;;20.10;66.60;;;;;;5073811;28;20472;-62
2022/06/09 01:04:06;;;;;;;2.65;1.30;;;20.10;65.90;;;;;;5073744;28;20052;-62
2022/06/09 01:06:52;;;;;;;2.67;1.23;;;20.10;65.90;;;;;;5072944;28;20415;-62
2022/06/09 01:09:21;;;;;;;2.40;1.38;;;20.10;65.80;;;;;;5073601;28;20050;-62
2022/06/09 01:11:48;;;;;;;2.33;1.30;;;20.10;65.90;;;;;;5072308;28;20083;-63
2022/06/09 01:14:13;;;;;;;3.20;1.27;;;20.10;65.90;;;;;;5073252;28;20036;-62
2022/06/09 01:17:13;;;;;;;2.83;1.10;;;20.10;65.90;;;;;;5055021;28;20550;-62
2022/06/09 01:19:54;;;;;;;2.40;1.27;;;20.00;66.40;;;;;;5057263;28;20052;-63
2022/06/09 01:22:24;;;;;;;3.38;1.35;;;20.00;65.80;;;;;;5073248;28;20064;-63
2022/06/09 01:25:18;;;;;;;3.33;1.52;;;20.00;65.80;;;;;;5073147;28;20048;-62
2022/06/09 01:28:22;;;;;;;3.13;1.38;;;20.00;65.80;;;;;;5071046;28;20468;-63
2022/06/09 01:30:59;;;;;;;3.65;1.30;;;20.00;65.80;;;;;;5072814;28;20048;-63
2022/06/09 01:33:52;;;;;;;3.38;0.90;;;20.00;65.80;;;;;;5072822;28;20041;-62
2022/06/09 01:36:42;;;;;;;3.30;1.40;;;20.00;65.80;;;;;;5071906;28;20051;-62
2022/06/09 01:39:08;;;;;;;3.72;1.60;;;20.00;65.80;;;;;;5072111;28;20381;-62
2022/06/09 01:41:33;;;;;;;2.65;1.02;;;20.00;65.80;;;;;;5072142;28;20051;-62
2022/06/09 01:43:59;;;;;;;2.33;1.20;;;20.00;65.80;;;;;;5072499;28;20475;-63
2022/06/09 01:46:30;;;;;;;4.28;1.05;;;20.00;65.80;;;;;;5071220;28;20047;-62
2022/06/09 01:49:06;;;;;;;3.05;1.42;;;20.00;65.90;;;;;;5070146;28;20135;-63
2022/06/09 01:51:35;;;;;;;2.25;1.10;;;20.00;65.80;;;;;;5072915;28;20094;-63
2022/06/09 01:54:13;;;;;;;2.63;1.30;;;20.00;65.80;;;;;;5070936;28;20036;-63
2022/06/09 01:56:39;;;;;;;;;;;20.00;65.80;;;;;;5074092;28;20044;-63
2022/06/09 01:59:12;;;;;;;3.25;1.27;;;20.00;65.70;;;;;;5072848;28;19927;-62
2022/06/09 02:01:55;;;;;;;2.33;1.20;;;20.00;65.80;;;;;;5070289;28;20071;-63
2022/06/09 02:04:29;;;;;;;2.58;1.17;;;20.00;65.90;;;;;;5072505;28;20396;-63
2022/06/09 02:06:54;;;;;;;2.90;1.13;;;20.00;65.80;;;;;;5070226;28;20059;-62
2022/06/09 02:09:26;;;;;;;3.90;1.30;;;20.00;65.80;;;;;;5071050;28;20123;-63
2022/06/09 02:11:54;;;;;;;3.28;1.30;;;20.00;65.80;;;;;;5071504;28;20454;-62
2022/06/09 02:14:20;;;;;;;3.05;1.38;;;20.00;65.80;;;;;;5071191;28;20091;-62
2022/06/09 02:16:46;;;;;;;3.53;1.42;;;20.00;65.80;;;;;;5071167;28;20054;-62
2022/06/09 02:19:12;;;;;;;4.90;1.23;;;20.00;65.90;;;;;;5070806;28;20048;-62
2022/06/09 02:21:37;;;;;;;3.63;1.17;;;20.00;65.80;;;;;;5072776;28;20097;-63
2022/06/09 02:24:03;;;;;;;3.75;1.63;;;19.90;65.80;;;;;;5069988;28;20053;-63
2022/06/09 02:26:30;;;;;;;3.42;1.15;;;19.90;65.80;;;;;;5072537;28;20044;-63
2022/06/09 02:28:56;;;;;;;3.72;1.30;;;19.90;65.80;;;;;;5071209;28;20067;-63
2022/06/09 02:31:22;;;;;;;4.45;1.30;;;20.00;66.10;;;;;;5072561;28;20476;-63
2022/06/09 02:33:48;;;;;;;4.50;1.40;;;20.00;65.80;;;;;;5071535;28;20480;-62
2022/06/09 02:36:13;;;;;;;5.03;1.30;;;19.90;65.80;;;;;;5071570;28;20048;-63
2022/06/09 02:38:39;;;;;;;2.85;1.15;;;19.90;65.80;;;;;;5072516;28;20037;-63
2022/06/09 02:41:05;;;;;;;6.07;1.40;;;20.00;65.80;;;;;;5071175;28;20059;-63
2022/06/09 02:43:30;;;;;;;4.00;1.17;;;19.90;65.80;;;;;;5071348;28;20085;-62
2022/06/09 02:45:56;;;;;;;2.72;1.30;;;19.90;65.70;;;;;;5071452;28;20412;-63
2022/06/09 02:48:22;;;;;;;2.83;1.30;;;19.90;65.80;;;;;;5072162;28;20131;-63
2022/06/09 02:50:48;;;;;;;4.80;1.40;;;19.90;65.80;;;;;;5072346;28;20044;-63
2022/06/09 02:53:14;;;;;;;2.88;1.17;;;19.90;65.80;;;;;;5076025;28;20112;-63
2022/06/09 02:55:40;;;;;;;4.30;1.58;;;19.90;65.80;;;;;;5076007;28;20041;-63
2022/06/09 02:58:05;;;;;;;3.97;1.60;;;19.90;65.80;;;;;;5075247;28;20040;-63
2022/06/09 03:00:31;;;;;;;3.00;1.20;;;19.90;65.80;;;;;;5076205;28;20476;-62
2022/06/09 03:02:58;;;;;;;3.53;1.60;;;19.90;65.80;;;;;;5076174;28;20044;-62
2022/06/09 03:05:24;;;;;;;3.47;1.33;;;19.90;65.80;;;;;;5075115;28;20391;-62
2022/06/09 03:07:50;;;;;;;4.70;1.40;;;19.90;65.80;;;;;;5075876;28;20115;-62
2022/06/09 03:10:15;;;;;;;3.25;1.42;;;19.90;65.80;;;;;;5075926;28;20040;-62
2022/06/09 03:12:42;;;;;;;3.80;1.30;;;19.90;65.80;;;;;;5074374;28;20076;-62
2022/06/09 03:15:10;;;;;;;3.00;1.05;;;19.90;65.90;;;;;;5075733;28;20033;-62
2022/06/09 03:17:35;;;;;;;;;;;19.90;66.40;;;;;;5076346;28;20045;-63
2022/06/09 03:20:02;;;;;;;6.18;1.60;;;19.90;65.70;;;;;;5074900;28;20019;-63
2022/06/09 03:22:30;;;;;;;4.40;1.35;;;19.90;65.80;;;;;;5075208;28;20084;-63
2022/06/09 03:24:55;;;;;;;2.80;1.23;;;19.90;65.80;;;;;;5075690;28;20127;-63
2022/06/09 03:27:21;;;;;;;4.05;1.42;;;19.90;65.80;;;;;;5074778;28;20390;-63
2022/06/09 03:29:47;;;;;;;3.00;1.25;;;19.90;65.80;;;;;;5075096;28;20048;-63
2022/06/09 03:32:12;;;;;;;3.70;1.40;;;19.90;65.80;;;;;;5075116;28;20476;-63
2022/06/09 03:34:39;;;;;;;5.82;1.55;;;19.90;65.80;;;;;;5075764;28;20135;-63
2022/06/09 03:37:04;;;;;;;3.50;1.40;;;19.90;65.80;;;;;;5075103;28;20481;-63
2022/06/09 03:39:30;;;;;;;3.90;1.70;;;19.90;65.80;;;;;;5074749;28;20128;-63
2022/06/09 03:41:58;;;;;;;2.22;1.27;;;19.90;66.40;;;;;;5074799;28;20051;-63
2022/06/09 03:44:24;;;;;;;4.28;1.75;;;19.90;65.80;;;;;;5075375;28;20045;-63
2022/06/09 03:46:49;;;;;;;5.10;1.33;;;19.90;65.80;;;;;;5074100;28;20055;-63
2022/06/09 03:49:15;;;;;;;4.57;1.70;;;19.80;65.70;;;;;;5075176;28;20127;-63
2022/06/09 03:51:40;;;;;;;5.22;1.58;;;19.90;65.80;;;;;;5073568;28;20071;-63
2022/06/09 03:54:07;;;;;;;4.72;1.30;;;19.90;65.80;;;;;;5074510;28;20048;-63
2022/06/09 03:56:33;;;;;;;3.55;1.70;;;19.90;65.80;;;;;;5074936;28;20428;-63
2022/06/09 03:58:59;;;;;;;4.57;1.70;;;19.90;65.80;;;;;;5074528;28;20503;-63
2022/06/09 04:01:24;;;;;;;3.40;1.23;;;19.90;65.80;;;;;;5073904;28;20075;-63
2022/06/09 04:03:50;;;;;;;3.85;1.35;;;19.80;65.70;;;;;;5073897;28;20047;-63
2022/06/09 04:06:18;;;;;;;3.22;1.27;;;19.80;65.70;;;;;;5074506;28;20500;-63
2022/06/09 04:08:43;;;;;;;4.13;1.55;;;19.80;65.70;;;;;;5071250;28;20103;-63
2022/06/09 04:11:09;;;;;;;7.55;1.70;;;19.80;65.70;;;;;;5074513;28;20155;-63
2022/06/09 04:13:36;;;;;;;3.95;1.30;;;19.90;65.80;;;;;;5074608;28;20127;-63
2022/06/09 04:16:06;;;;;;;4.43;1.23;;;19.80;65.70;;;;;;5073838;28;20045;-62
2022/06/09 04:18:32;;;;;;;4.72;1.33;;;19.90;65.80;;;;;;5074285;28;20041;-63
2022/06/09 04:20:57;;;;;;;3.97;1.60;;;19.90;65.70;;;;;;5074357;28;20119;-63
2022/06/09 04:23:25;;;;;;;3.38;1.38;;;19.80;65.70;;;;;;5073804;28;20393;-63
2022/06/09 04:25:50;;;;;;;3.00;1.40;;;19.80;65.70;;;;;;5074481;28;20053;-63
2022/06/09 04:28:17;;;;;;;3.17;1.33;;;19.80;65.70;;;;;;5074287;28;20048;-63
2022/06/09 04:30:43;;;;;;;4.85;1.48;;;19.80;65.70;;;;;;5073554;28;20048;-63
2022/06/09 04:33:08;;;;;;;3.28;1.33;;;19.80;65.70;;;;;;5074589;28;20469;-63
2022/06/09 04:35:34;;;;;;;3.15;1.20;;;19.80;65.60;;;;;;5073617;28;20083;-63
2022/06/09 04:37:59;;;;;;;3.97;1.50;;;19.80;65.60;;;;;;5073579;28;20047;-63
2022/06/09 04:40:27;;;;;;;2.42;1.10;;;19.80;66.30;;;;;;5073857;28;20051;-63
2022/06/09 04:42:52;;;;;;;2.83;1.40;;;19.80;65.70;;;;;;5071939;28;20045;-63
2022/06/09 04:45:19;;;;;;;3.47;1.35;;;19.80;65.70;;;;;;5074399;28;20369;-63
2022/06/09 04:47:44;;;;;;;2.20;1.08;;;19.80;65.70;;;;;;5073554;28;20074;-63
2022/06/09 04:50:10;;;;;;;2.83;1.17;;;19.80;65.60;;;;;;5072710;28;20484;-63
2022/06/09 04:52:36;;;;;;;2.63;1.33;;;19.80;65.70;;;;;;5073944;28;20087;-63
2022/06/09 04:55:02;;;;;;;3.67;1.30;;;19.80;65.60;;;;;;5073559;28;20051;-63
2022/06/09 04:57:28;;;;;;;3.88;1.27;;;19.80;65.70;;;;;;5072784;28;20084;-63
2022/06/09 04:59:54;;;;;;;2.42;1.27;;;19.80;65.70;;;;;;5072496;28;20045;-63
2022/06/09 05:02:19;;;;;;;3.22;1.23;;;19.80;65.70;;;;;;5073885;28;20428;-63
2022/06/09 05:04:45;;;;;;;3.80;1.50;;;19.80;65.70;;;;;;5072248;28;20071;-63
2022/06/09 05:07:10;;;;;;;3.45;1.50;;;19.80;65.70;;;;;;5073769;28;20045;-63
2022/06/09 05:09:36;;;;;;;3.95;1.52;;;19.80;65.70;;;;;;5073599;28;20052;-63
2022/06/09 05:12:02;;;;;;;3.67;1.25;;;19.80;65.70;;;;;;5072372;28;20039;-63
2022/06/09 05:14:27;;;;;;;3.08;1.40;;;19.80;65.70;;;;;;5072503;28;20037;-63
2022/06/09 05:16:53;;;;;;;3.00;1.08;;;19.80;65.70;;;;;;5073277;28;20123;-63
2022/06/09 05:19:18;;;;;;;3.10;1.40;;;19.80;65.70;;;;;;5072546;28;20546;-63
2022/06/09 05:21:44;;;;;;;4.35;1.70;;;19.80;65.70;;;;;;5073113;28;20114;-63
2022/06/09 05:24:11;;;;;;;3.55;1.25;;;19.80;65.70;;;;;;5073137;28;20500;-63
2022/06/09 05:26:37;;;;;;;4.10;1.15;;;19.80;65.70;;;;;;5072337;28;20511;-63
2022/06/09 05:29:03;;;;;;;2.30;0.80;;;19.80;65.80;;;;;;5052734;28;20037;-63
2022/06/09 05:31:28;;;;;;;5.85;1.50;;;19.80;65.80;;;;;;5053534;28;20128;-63
2022/06/09 05:33:54;;;;;;;2.40;1.10;;;19.80;65.80;;;;;;5051251;28;20072;-63
2022/06/09 05:36:20;;;;;;;3.13;1.17;;;19.80;65.70;;;;;;5053145;28;20076;-62
2022/06/09 05:47:00;;;;;;;6.57;1.50;;;19.80;65.80;;;;;;5051949;28;20045;-63
2022/06/09 05:49:26;;;;;;;3.80;1.25;;;19.80;65.80;;;;;;5062864;28;20044;-63
2022/06/09 05:51:52;;;;;;;5.13;1.48;;;19.80;65.80;;;;;;5072747;28;20040;-63
2022/06/09 05:54:19;;;;;;;4.70;1.02;;;19.80;65.70;;;;;;5072101;28;20451;-63
2022/06/09 05:56:44;;;;;;;3.47;1.20;;;19.80;65.80;;;;;;5071812;28;20040;-63
2022/06/09 05:59:10;;;;;;;4.70;1.25;;;19.80;65.80;;;;;;5072841;28;20039;-63
2022/06/09 06:01:36;;;;;;;3.72;1.40;;;19.80;65.80;;;;;;5072189;28;20551;-62
2022/06/09 06:04:05;;;;;;;4.45;1.25;;;19.80;65.80;;;;;;5072150;28;20071;-63
2022/06/09 06:06:33;;;;;;;3.38;1.10;;;19.80;65.80;;;;;;5072642;28;20037;-63
2022/06/09 06:08:59;;;;;;;;;;;19.80;65.80;;;;;;5072053;28;20064;-63
2022/06/09 06:11:25;;;;;;;2.60;1.30;;;19.70;65.70;;;;;;5072938;28;19928;-63
2022/06/09 06:13:51;;;;;;;2.83;1.25;;;19.70;65.80;;;;;;5072171;28;20040;-63
2022/06/09 06:16:16;;;;;;;4.30;1.40;;;19.70;65.80;;;;;;5071664;28;20052;-64
2022/06/09 06:18:42;;;;;;;3.38;1.10;;;19.70;65.80;;;;;;5072505;28;20041;-63
2022/06/09 06:21:07;;;;;;;2.13;1.00;;;19.70;65.80;;;;;;5071964;28;20049;-63
2022/06/09 06:23:33;;;;;;;3.20;1.17;;;19.80;65.90;;;;;;5072393;28;20504;-64
2022/06/09 06:25:59;;;;;;;4.05;1.08;;;19.70;65.80;;;;;;5071989;28;20817;-63
2022/06/09 06:28:25;;;;;;;3.53;1.20;;;19.80;65.90;;;;;;5071584;28;20053;-63
2022/06/09 06:30:50;;;;;;;3.40;1.30;;;19.70;65.80;;;;;;5072228;28;20036;-64
2022/06/09 06:33:16;;;;;;;3.53;1.20;;;19.70;65.90;;;;;;5072559;28;20044;-64
2022/06/09 06:35:42;;;;;;;2.30;1.10;;;19.70;65.90;;;;;;5071488;28;20040;-63
2022/06/09 06:38:07;;;;;;;2.40;1.10;;;19.70;65.90;;;;;;5072575;28;20040;-63
2022/06/09 06:40:33;;;;;;;4.13;1.30;;;19.70;65.90;;;;;;5072590;28;20040;-63
2022/06/09 06:42:58;;;;;;;3.47;1.27;;;19.70;65.90;;;;;;5071330;28;20113;-63
2022/06/09 06:45:25;;;;;;;2.83;1.10;;;19.70;66.00;;;;;;5072517;28;20452;-63
2022/06/09 06:47:51;;;;;;;4.32;1.20;;;19.80;66.00;;;;;;5071794;28;20041;-63
2022/06/09 06:50:17;;;;;;;2.75;1.23;;;19.70;66.00;;;;;;5071711;28;20373;-63
2022/06/09 06:52:42;;;;;;;2.78;1.20;;;19.70;66.00;;;;;;5070636;28;20037;-64
2022/06/09 06:55:11;;;;;;;4.43;1.70;;;19.80;66.00;;;;;;5072166;28;20377;-63
2022/06/09 06:57:36;;;;;;;2.10;1.25;;;19.70;66.00;;;;;;5071247;28;20051;-63
2022/06/09 07:00:06;;;;;;;4.28;1.38;;;19.80;66.10;;;;;;5071751;28;20128;-63
2022/06/09 07:02:32;;;;;;;3.25;1.15;;;19.80;66.10;;;;;;5071933;28;20059;-63
2022/06/09 07:04:57;;;;;;;4.15;1.40;;;19.80;66.30;;;;;;5071162;28;20036;-63
2022/06/09 07:07:24;;;;;;;2.90;1.20;;;19.80;66.30;;;;;;5071924;28;20040;-63
2022/06/09 07:09:50;;;;;;;3.22;1.70;;;19.80;66.40;;;;;;5071678;28;20045;-62
2022/06/09 07:12:16;;;;;;;4.85;1.45;;;19.80;66.40;;;;;;5071223;28;20097;-63
2022/06/09 07:14:42;;;;;;;3.28;1.30;;;19.90;66.40;;;;;;5071594;28;20109;-63
2022/06/09 07:17:07;;;;;;;3.38;1.08;;;19.90;66.30;;;;;;5071670;28;20036;-63
2022/06/09 07:19:33;;;;;;;3.55;1.67;;;19.90;66.30;;;;;;5071258;28;20492;-63
2022/06/09 07:21:58;;;;;;;2.92;1.30;;;19.90;66.30;;;;;;5071800;28;20114;-63
2022/06/09 07:24:24;;;;;;;3.42;1.67;;;19.90;66.30;;;;;;5070938;28;20052;-63
2022/06/09 07:26:50;;;;;;;2.85;1.50;;;19.90;66.20;;;;;;5071755;28;20036;-63
2022/06/09 07:29:16;;;;;;;2.85;1.70;;;19.90;66.20;;;;;;5071707;28;20074;-63
2022/06/09 07:31:42;;;;;;;4.05;1.60;;;20.00;66.20;;;;;;5070870;28;20060;-63
2022/06/09 07:34:07;;;;;;;3.97;1.75;;;20.00;66.10;;;;;;5071885;28;20045;-63
2022/06/09 07:36:33;;;;;;;4.55;1.75;;;20.00;66.20;;;;;;5071717;28;20055;-64
2022/06/09 07:38:59;;;;;;;3.10;1.60;;;20.00;66.20;;;;;;5073544;28;20194;-63
2022/06/09 07:41:24;;;;;;;4.38;1.48;;;20.10;66.20;;;;;;5075355;28;20052;-63
2022/06/09 07:43:50;;;;;;;3.50;1.83;;;20.10;66.20;;;;;;5074757;28;20036;-64
2022/06/09 07:46:16;;;;;;;3.05;1.35;;;20.10;66.20;;;;;;5074521;28;20067;-64
2022/06/09 07:48:41;;;;;;;3.92;1.65;;;20.10;66.10;;;;;;5073909;28;20468;-64
2022/06/09 07:51:07;;;;;;;2.33;1.80;;;20.10;66.10;;;;;;5075329;28;20526;-64
2022/06/09 07:53:33;;;;;;;3.03;1.35;;;20.10;66.10;;;;;;5074529;28;20119;-64
2022/06/09 07:55:58;;;;;;;5.55;1.98;;;20.10;66.10;;;;;;5074700;28;20037;-64
2022/06/09 07:58:24;;;;;;;2.45;1.40;;;20.20;66.20;;;;;;5074830;28;20041;-64
2022/06/09 08:00:49;;;;;;;3.17;1.30;;;20.20;66.10;;;;;;5073760;28;20503;-64
2022/06/09 08:03:17;;;;;;;3.28;1.77;;;20.20;66.10;;;;;;5075069;28;20050;-63
2022/06/09 08:05:42;;;;;;;3.22;1.52;;;20.20;66.10;;;;;;5074733;28;20044;-64
2022/06/09 08:08:08;;;;;;;4.50;1.85;;;20.20;66.10;;;;;;5074336;28;20044;-64
2022/06/09 08:10:34;;;;;;;3.45;1.63;;;20.20;66.10;;;;;;5074903;28;20045;-64
2022/06/09 08:13:01;;;;;;;3.47;1.50;;;20.20;66.10;;;;;;5073110;28;20040;-64
2022/06/09 08:15:27;;;;;;;2.20;1.55;;;20.30;66.10;;;;;;5073851;28;20664;-63
2022/06/09 08:17:53;;;;;;;3.50;1.42;;;20.30;66.10;;;;;;5073336;28;20041;-64
2022/06/09 08:20:19;;;;;;;3.72;1.60;;;20.30;66.10;;;;;;5074809;28;20048;-63
2022/06/09 08:22:44;;;;;;;2.90;1.60;;;20.30;66.00;;;;;;5073694;28;20044;-64
2022/06/09 08:25:13;;;;;;;3.95;1.63;;;20.30;66.00;;;;;;5074765;28;20045;-64
2022/06/09 08:27:38;;;;;;;3.97;1.80;;;20.40;66.00;;;;;;5073966;28;20128;-64
2022/06/09 08:30:08;;;;;;;3.10;1.75;;;20.40;66.00;;;;;;5074286;28;20455;-64
2022/06/09 08:32:33;;;;;;;2.40;1.35;;;20.40;65.90;;;;;;5074569;28;20040;-63
2022/06/09 08:34:59;;;;;;;3.25;1.42;;;20.40;65.90;;;;;;5073364;28;20044;-64
2022/06/09 08:37:25;;;;;;;3.85;1.52;;;20.40;65.90;;;;;;5074177;28;20044;-64
2022/06/09 08:39:50;;;;;;;2.38;1.42;;;20.40;65.90;;;;;;5074181;28;20093;-64
2022/06/09 08:42:29;;;;;;;2.17;1.35;;;20.40;65.80;;;;;;5073483;28;20044;-64
2022/06/09 08:45:04;;;;;;;3.67;1.52;;;20.50;65.90;;;;;;5072933;28;20138;-64
2022/06/09 08:47:46;;;;;;;3.42;1.40;;;20.50;65.90;;;;;;5074143;28;20037;-64
2022/06/09 08:50:28;;;;;;;2.95;1.58;;;20.50;65.80;;;;;;5072360;28;20040;-64
2022/06/09 08:53:01;;;;;;;2.25;1.55;;;20.50;65.80;;;;;;5072311;28;20054;-64
2022/06/09 08:55:45;;;;;;;2.92;1.48;;;20.50;65.80;;;;;;5073782;28;20443;-64
2022/06/09 08:58:32;;;;;;;2.63;1.45;;;20.50;65.80;;;;;;5073139;28;20170;-64
2022/06/09 09:01:09;;;;;;;3.15;1.73;;;20.50;65.70;;;;;;5073289;28;20055;-64
2022/06/09 09:03:54;;;;;;;4.07;1.58;;;20.50;65.70;;;;;;5072137;28;20048;-64
2022/06/09 09:06:22;;;;;;;2.53;1.40;;;20.60;65.80;;;;;;5073772;28;20100;-64
2022/06/09 09:08:47;;;;;;;2.20;1.40;;;20.60;65.70;;;;;;5072225;28;20041;-64
2022/06/09 09:11:17;;;;;;;2.35;1.30;;;20.60;65.80;;;;;;5072738;28;20044;-64
2022/06/09 09:13:49;;;;;;;3.72;1.40;;;20.60;65.60;;;;;;5072949;28;20124;-64
2022/06/09 09:16:38;;;;;;;3.05;1.10;;;20.60;65.60;;;;;;5073414;28;20041;-64
2022/06/09 09:19:19;;;;;;;3.25;1.30;;;20.60;65.60;;;;;;5072612;28;20048;-64
2022/06/09 09:21:57;;;;;;;2.33;1.50;;;20.60;65.50;;;;;;5073317;28;20072;-64
2022/06/09 09:24:28;;;;;;;1.77;1.17;;;20.60;65.60;;;;;;5071211;28;20048;-64
2022/06/09 09:27:12;;;;;;;3.05;1.30;;;20.60;65.60;;;;;;5072051;28;20098;-64
2022/06/09 09:29:46;;;;;;;3.10;1.20;;;20.60;65.50;;;;;;5073352;28;20048;-64
2022/06/09 09:32:18;;;;;;;2.38;1.05;;;20.60;65.50;;;;;;5072825;28;20043;-63
2022/06/09 09:34:48;;;;;;;2.50;1.30;;;20.60;65.50;;;;;;5072563;28;20476;-63
2022/06/09 09:37:21;;;;;;;2.25;1.08;;;20.60;65.50;;;;;;5073231;28;20037;-63
2022/06/09 09:40:13;;;;;;;2.63;1.38;;;20.60;65.50;;;;;;5054158;28;20076;-63
2022/06/09 09:42:42;;;;;;;3.10;1.33;;;20.60;65.50;;;;;;5072120;28;20055;-63
2022/06/09 09:45:11;;;;;;;2.33;1.20;;;20.60;65.50;;;;;;5071137;28;20091;-63
2022/06/09 09:47:57;;;;;;;3.03;1.23;;;20.70;65.40;;;;;;5073183;28;20044;-62
2022/06/09 09:50:45;;;;;;;2.72;1.23;;;20.70;65.40;;;;;;5073007;28;20150;-63
2022/06/09 09:53:30;;;;;;;2.90;1.10;;;20.70;65.40;;;;;;5071928;28;20040;-63
2022/06/09 09:56:14;;;;;;;3.05;1.23;;;20.70;65.30;;;;;;5072472;28;20123;-63
2022/06/09 09:58:49;;;;;;;2.05;1.25;;;20.70;66.00;;;;;;5071510;28;20093;-63
2022/06/09 10:01:14;;;;;;;2.40;1.05;;;20.70;65.30;;;;;;5071558;28;20040;-63
2022/06/09 10:09:29;;;;;;;1.73;1.23;;;20.70;65.30;;;;;;5071994;28;20049;-63
2022/06/09 10:12:01;;;;;;;3.75;1.05;;;20.70;65.40;;;;;;5070928;28;20082;-63
2022/06/09 10:14:43;;;;;;;3.15;1.20;;;20.70;66.00;;;;;;5070479;28;20488;-63
2022/06/09 10:17:30;;;;;;;3.63;1.10;;;20.70;65.30;;;;;;5071191;28;20446;-63
2022/06/09 10:20:00;;;;;;;3.17;1.05;;;20.70;65.30;;;;;;5070867;28;20087;-62
2022/06/09 10:22:31;;;;;;;1.30;0.95;;;20.70;65.30;;;;;;5070227;28;20063;-62
2022/06/09 10:24:58;;;;;;;3.45;1.20;;;20.80;65.30;;;;;;5071800;28;20056;-62
2022/06/09 10:27:28;;;;;;;1.83;1.10;;;20.80;65.30;;;;;;5070582;28;20044;-63
2022/06/09 10:30:04;;;;;;;2.53;1.20;;;20.80;65.40;;;;;;5071190;28;20040;-63
2022/06/09 10:32:47;;;;;;;3.67;1.10;;;20.80;65.40;;;;;;5072393;28;20041;-63
2022/06/09 10:35:49;;;;;;;2.08;1.00;;;20.80;65.30;;;;;;5053933;28;20392;-63
2022/06/09 10:38:20;;;;;;;2.10;1.10;;;20.80;65.20;;;;;;5072459;28;20055;-63
2022/06/09 10:40:54;;;;;;;2.13;1.15;;;20.80;65.20;;;;;;5072237;28;20040;-63
2022/06/09 10:43:39;;;;;;;1.95;1.00;;;20.90;65.30;;;;;;5071244;28;20040;-63
2022/06/09 10:46:13;;;;;;;2.53;1.10;;;20.80;65.30;;;;;;5071169;28;20044;-63
2022/06/09 10:55:15;;;;;;;3.75;1.00;;;20.90;65.40;;;;;;5071926;28;20049;-63
2022/06/09 10:58:00;;;;;;;1.30;0.90;;;20.90;65.40;;;;;;5071299;28;20120;-63
2022/06/09 11:00:31;;;;;;;2.42;1.10;;;21.00;65.50;;;;;;5072445;28;20201;-63
2022/06/09 11:03:00;;;;;;;1.67;0.95;;;21.00;65.40;;;;;;5070829;28;20553;-63
2022/06/09 11:05:34;;;;;;;2.20;1.00;;;21.00;65.50;;;;;;5071109;28;20123;-63
2022/06/09 11:08:13;;;;;;;3.05;1.20;;;21.00;65.50;;;;;;5071961;28;20040;-63
2022/06/09 11:10:54;;;;;;;2.65;1.40;;;21.00;65.50;;;;;;5070952;28;20048;-63
2022/06/09 11:13:50;;;;;;;2.63;0.80;;;21.00;65.50;;;;;;5075432;28;20479;-63
2022/06/09 11:16:44;;;;;;;1.52;0.80;;;21.00;65.50;;;;;;5075930;28;20447;-63
2022/06/09 11:19:24;;;;;;;2.80;1.10;;;21.10;65.50;;;;;;5075788;28;20044;-63
2022/06/09 11:22:03;;;;;;;1.85;0.80;;;21.10;65.50;;;;;;5075029;28;20045;-63
2022/06/09 11:24:37;;;;;;;2.90;0.93;;;21.10;65.50;;;;;;5075066;28;20521;-63
2022/06/09 11:27:19;;;;;;;3.30;1.17;;;21.10;65.40;;;;;;5074295;28;20052;-63
2022/06/09 11:29:57;;;;;;;2.75;0.82;;;21.10;65.30;;;;;;5074008;28;20044;-63
2022/06/09 11:32:39;;;;;;;2.78;0.90;;;21.20;65.30;;;;;;5074676;28;20123;-63
2022/06/09 11:35:26;;;;;;;2.35;0.80;;;21.20;65.20;;;;;;5076614;28;20048;-63
2022/06/09 11:38:08;;;;;;;1.95;0.85;;;21.20;65.20;;;;;;5074296;28;20484;-62
2022/06/09 11:40:50;;;;;;;2.72;1.45;;;21.20;65.10;;;;;;5074389;28;20041;-62
2022/06/09 11:43:19;;;;;;;1.90;0.88;;;21.30;65.10;;;;;;5074480;28;20053;-62
2022/06/09 11:45:56;;;;;;;2.05;0.93;;;21.30;65.00;;;;;;5074068;28;20036;-63
2022/06/09 11:48:33;;;;;;;2.08;0.77;;;21.30;65.00;;;;;;5074797;28;20044;-63
2022/06/09 11:50:59;;;;;;;1.27;0.77;;;21.30;64.90;;;;;;5073734;28;20131;-63
2022/06/09 11:53:28;;;;;;;2.05;0.82;;;21.30;64.90;;;;;;5073395;28;20124;-63
2022/06/09 11:56:34;;;;;;;2.05;0.70;;;21.30;64.80;;;;;;5073808;28;20066;-63
2022/06/09 11:59:15;;;;;;;1.75;0.80;;;21.40;64.70;;;;;;5073976;28;20048;-63
2022/06/09 12:01:56;;;;;;;3.13;0.95;;;21.40;64.70;;;;;;5074844;28;20102;-63
2022/06/09 12:04:46;;;;;;;1.63;0.80;;;21.40;64.60;;;;;;5074691;28;20431;-63
2022/06/09 12:07:18;;;;;;;2.33;0.65;;;21.40;64.50;;;;;;5074417;28;20049;-63
2022/06/09 12:09:52;;;;;;;3.85;0.80;;;21.40;64.50;;;;;;5074613;28;20502;-63
2022/06/09 12:12:38;;;;;;;1.70;0.73;;;21.50;64.40;;;;;;5073703;28;20045;-63
2022/06/09 12:15:26;;;;;;;1.13;0.60;;;21.50;64.30;;;;;;5073085;28;20055;-62
2022/06/09 12:17:57;;;;;;;;;;;21.50;64.30;;;;;;5073853;28;20052;-62
2022/06/09 12:20:27;;;;;;;2.22;0.75;;;21.50;64.30;;;;;;5073853;28;19959;-62
2022/06/09 12:23:39;;;;;;;4.05;0.80;;;21.50;64.20;;;;;;5072837;28;20071;-62
2022/06/09 12:26:10;;;;;;;2.50;0.75;;;21.50;64.10;;;;;;5052074;28;20055;-62
2022/06/09 12:28:43;;;;;;;1.67;0.60;;;21.60;64.10;;;;;;5070184;28;20063;-62
2022/06/09 12:31:10;;;;;;;1.55;0.63;;;21.60;64.00;;;;;;5074620;28;20048;-63
2022/06/09 12:33:36;;;;;;;1.97;0.50;;;21.60;63.90;;;;;;5073036;28;20101;-63
2022/06/09 12:36:09;;;;;;;1.90;0.70;;;21.60;63.90;;;;;;5072195;28;20302;-62
2022/06/09 12:38:51;;;;;;;2.72;0.70;;;21.70;63.90;;;;;;5072721;28;20044;-62
2022/06/09 12:41:22;;;;;;;2.20;0.70;;;21.70;64.00;;;;;;5072182;28;20048;-63
2022/06/09 12:44:03;;;;;;;2.50;0.70;;;21.70;63.80;;;;;;5072636;28;20052;-62
2022/06/09 12:46:32;;;;;;;2.70;1.10;;;21.70;63.80;;;;;;5074562;28;20052;-62
2022/06/09 12:48:58;;;;;;;2.60;0.75;;;21.70;63.70;;;;;;5072637;28;20115;-62
2022/06/09 12:51:31;;;;;;;1.55;0.65;;;21.70;63.70;;;;;;5074073;28;20059;-62
2022/06/09 12:54:05;;;;;;;2.40;0.63;;;21.70;63.60;;;;;;5072242;28;20066;-64
2022/06/09 12:56:44;;;;;;;2.42;0.70;;;21.70;63.50;;;;;;5072198;28;20056;-63
2022/06/09 12:59:26;;;;;;;3.13;0.80;;;21.80;63.50;;;;;;5073489;28;20045;-62
2022/06/09 13:02:00;;;;;;;2.65;0.70;;;21.80;64.10;;;;;;5073634;28;20041;-62
2022/06/09 13:04:27;;;;;;;0.93;0.70;;;21.80;63.50;;;;;;5073751;28;20041;-62
2022/06/09 13:06:53;;;;;;;1.98;0.75;;;21.80;63.40;;;;;;5073271;28;20090;-63
2022/06/09 13:09:32;;;;;;;2.40;0.55;;;21.80;63.30;;;;;;5073192;28;20076;-63
2022/06/09 13:15:05;;;;;;;2.22;0.63;;;21.80;63.20;;;;;;5072507;28;20447;-63
2022/06/09 13:17:32;;;;;;;2.28;0.60;;;21.80;63.20;;;;;;5054965;28;20052;-63
2022/06/09 13:20:02;;;;;;;3.03;0.77;;;21.90;63.20;;;;;;5071717;28;20037;-63
2022/06/09 13:22:28;;;;;;;4.72;0.90;;;21.90;63.10;;;;;;5072344;28;20530;-63
2022/06/09 13:24:54;;;;;;;2.25;0.60;;;21.90;62.90;;;;;;5054388;28;20131;-63
2022/06/09 13:27:22;;;;;;;1.90;0.50;;;21.90;62.90;;;;;;5073293;28;20492;-63
2022/06/09 13:29:59;;;;;;;1.52;0.40;;;21.90;62.80;;;;;;5071839;28;20123;-63